Time;durP1;ratioP1;P1;durP2;ratioP2;P2;SDS_P1;SDS_P2;PMS_P1;PMS_P2;Temp;Humidity;BMP_temperature;BMP_pressure;BME280_temperature;BME280_humidity;BME280_pressure;Samples;Min_cycle;Max_cycle;Signal;HPM_P1;HPM_P2
2022/01/09 00:00:23;;;;;;;28.20;15.40;;;;;;;;;;5032887;28;20460;-68
2022/01/09 00:02:49;;;;;;;23.17;14.50;;;;;;;;;;5033292;28;20037;-68
2022/01/09 00:05:15;;;;;;;21.65;12.52;;;;;;;;;;5033586;28;20036;-68
2022/01/09 00:07:42;;;;;;;25.27;12.60;;;;;;;;;;5036887;28;20434;-68
2022/01/09 00:10:09;;;;;;;20.17;12.25;;;;;;;;;;5052917;28;20479;-68
2022/01/09 00:12:35;;;;;;;20.45;12.90;;;;;;;;;;5051902;28;20090;-68
2022/01/09 00:15:01;;;;;;;18.40;11.95;;;;;;;;;;5052038;28;20452;-68
2022/01/09 00:17:27;;;;;;;17.92;12.50;;;;;;;;;;5052093;28;20388;-68
2022/01/09 00:19:52;;;;;;;20.50;12.93;;;;;;;;;;5052825;28;20028;-68
2022/01/09 00:22:26;;;;;;;18.85;12.10;;;;;;;;;;5036653;28;20152;-68
2022/01/09 00:24:52;;;;;;;18.42;12.07;;;;;;;;;;5032654;28;20041;-68
2022/01/09 00:27:18;;;;;;;17.90;11.13;;;;;;;;;;5031462;28;20036;-68
2022/01/09 00:29:44;;;;;;;21.92;12.38;;;;;;;;;;5032609;28;20385;-68
2022/01/09 00:32:09;;;;;;;20.10;11.80;;;;;;;;;;5032889;28;20026;-68
2022/01/09 00:34:35;;;;;;;17.48;10.90;;;;;;;;;;5032700;28;20061;-68
2022/01/09 00:37:01;;;;;;;19.92;11.25;;;;;;;;;;5032705;28;20025;-68
2022/01/09 00:39:27;;;;;;;19.15;11.80;;;;;;;;;;5033288;28;20041;-68
2022/01/09 00:41:52;;;;;;;17.70;11.10;;;;;;;;;;5032525;28;20049;-69
2022/01/09 00:44:18;;;;;;;17.30;10.65;;;;;;;;;;5032734;28;20037;-68
2022/01/09 00:46:44;;;;;;;16.75;11.02;;;;;;;;;;5035488;28;20024;-68
2022/01/09 00:49:09;;;;;;;17.42;11.35;;;;;;;;;;5034718;28;20076;-68
2022/01/09 00:51:35;;;;;;;23.50;14.38;;;;;;;;;;5031604;28;20383;-68
2022/01/09 00:54:01;;;;;;;26.25;16.65;;;;;;;;;;5032621;28;20108;-68
2022/01/09 00:56:27;;;;;;;41.75;20.55;;;;;;;;;;5032268;28;20068;-67
2022/01/09 00:58:52;;;;;;;33.95;18.52;;;;;;;;;;5032149;28;20038;-69
2022/01/09 01:01:18;;;;;;;33.05;19.13;;;;;;;;;;5032655;28;20017;-68
2022/01/09 01:03:44;;;;;;;28.83;17.90;;;;;;;;;;5032141;28;20041;-68
2022/01/09 01:06:09;;;;;;;26.73;17.33;;;;;;;;;;5032283;28;20033;-67
2022/01/09 01:08:35;;;;;;;29.98;17.98;;;;;;;;;;5032085;28;20037;-67
2022/01/09 01:11:01;;;;;;;25.58;16.88;;;;;;;;;;5031885;28;20024;-68
2022/01/09 01:13:27;;;;;;;24.95;16.08;;;;;;;;;;5031726;28;20044;-68
2022/01/09 01:15:53;;;;;;;22.67;15.48;;;;;;;;;;5032270;28;20387;-68
2022/01/09 01:18:19;;;;;;;25.25;16.33;;;;;;;;;;5032023;28;20115;-67
2022/01/09 01:20:44;;;;;;;27.95;16.40;;;;;;;;;;5022984;28;20042;-67
2022/01/09 01:23:10;;;;;;;26.92;16.00;;;;;;;;;;5012038;28;20038;-67
2022/01/09 01:25:36;;;;;;;26.52;18.10;;;;;;;;;;5011754;28;20050;-68
2022/01/09 01:28:02;;;;;;;31.95;20.80;;;;;;;;;;5012519;28;20065;-68
2022/01/09 01:30:28;;;;;;;29.52;20.00;;;;;;;;;;5012318;28;20480;-68
2022/01/09 01:32:54;;;;;;;28.55;17.58;;;;;;;;;;5012216;28;20103;-68
2022/01/09 01:35:20;;;;;;;29.65;18.85;;;;;;;;;;5012448;28;20428;-68
2022/01/09 01:37:46;;;;;;;29.63;19.00;;;;;;;;;;5012049;28;20069;-68
2022/01/09 01:40:17;;;;;;;30.02;18.98;;;;;;;;;;5012036;28;20058;-69
2022/01/09 01:42:45;;;;;;;32.05;20.10;;;;;;;;;;5012412;28;20108;-68
2022/01/09 01:45:11;;;;;;;34.70;20.33;;;;;;;;;;5011813;28;20032;-68
2022/01/09 01:47:38;;;;;;;38.08;24.17;;;;;;;;;;5011968;28;20038;-68
2022/01/09 01:50:06;;;;;;;31.55;20.95;;;;;;;;;;5012564;28;20053;-68
2022/01/09 01:52:44;;;;;;;28.30;19.35;;;;;;;;;;5012009;28;20112;-68
2022/01/09 01:55:13;;;;;;;33.13;20.40;;;;;;;;;;5012154;28;20404;-68
2022/01/09 01:57:40;;;;;;;35.30;22.25;;;;;;;;;;5013806;28;20033;-68
2022/01/09 02:00:08;;;;;;;27.77;16.63;;;;;;;;;;5019489;28;20042;-68
2022/01/09 02:02:34;;;;;;;21.67;14.98;;;;;;;;;;5023138;28;20508;-68
2022/01/09 02:05:00;;;;;;;19.58;13.60;;;;;;;;;;5025057;28;20080;-69
2022/01/09 02:07:28;;;;;;;23.25;14.63;;;;;;;;;;5027873;28;20056;-68
2022/01/09 02:09:54;;;;;;;22.02;15.57;;;;;;;;;;5028870;28;20131;-69
2022/01/09 02:12:20;;;;;;;21.23;15.40;;;;;;;;;;5029838;28;20022;-68
2022/01/09 02:14:47;;;;;;;23.83;15.82;;;;;;;;;;5031182;28;20111;-69
2022/01/09 02:17:18;;;;;;;24.05;15.77;;;;;;;;;;5029968;28;20018;-69
2022/01/09 02:19:55;;;;;;;21.85;14.05;;;;;;;;;;5030312;28;20042;-67
2022/01/09 02:22:30;;;;;;;19.23;12.85;;;;;;;;;;5030546;28;20057;-69
2022/01/09 02:24:58;;;;;;;18.90;13.30;;;;;;;;;;5030815;28;20080;-69
2022/01/09 02:27:24;;;;;;;18.88;12.32;;;;;;;;;;5029890;28;20029;-67
2022/01/09 02:29:50;;;;;;;17.45;11.43;;;;;;;;;;5030755;28;20046;-68
2022/01/09 02:32:16;;;;;;;18.55;11.82;;;;;;;;;;5030999;28;20056;-68
2022/01/09 02:34:47;;;;;;;17.70;12.13;;;;;;;;;;5030153;28;20109;-68
2022/01/09 02:37:13;;;;;;;21.15;13.48;;;;;;;;;;5029868;28;20045;-68
2022/01/09 02:39:39;;;;;;;17.98;11.95;;;;;;;;;;5027996;28;20022;-68
2022/01/09 02:42:20;;;;;;;17.70;11.63;;;;;;;;;;5028083;28;20042;-68
2022/01/09 02:44:46;;;;;;;18.30;12.32;;;;;;;;;;5034650;28;20471;-69
2022/01/09 02:47:12;;;;;;;21.00;13.15;;;;;;;;;;5040821;28;20045;-68
2022/01/09 02:49:39;;;;;;;17.50;12.13;;;;;;;;;;5029580;28;20056;-69
2022/01/09 02:52:11;;;;;;;16.50;10.80;;;;;;;;;;5029313;28;20017;-69
2022/01/09 02:57:21;;;;;;;16.63;10.93;;;;;;;;;;5029777;28;20033;-69
2022/01/09 02:59:47;;;;;;;14.20;10.27;;;;;;;;;;5028567;28;20065;-67
2022/01/09 03:02:20;;;;;;;16.88;11.45;;;;;;;;;;5028452;28;20030;-68
2022/01/09 03:04:46;;;;;;;16.10;10.73;;;;;;;;;;5029161;28;20033;-68
2022/01/09 03:07:11;;;;;;;15.27;11.15;;;;;;;;;;5028703;28;20054;-68
2022/01/09 03:09:37;;;;;;;15.27;10.18;;;;;;;;;;5028583;28;20034;-69
2022/01/09 03:12:05;;;;;;;12.60;9.07;;;;;;;;;;5033494;28;20107;-68
2022/01/09 03:14:30;;;;;;;15.00;9.90;;;;;;;;;;5033794;28;20034;-68
2022/01/09 03:16:56;;;;;;;16.42;10.60;;;;;;;;;;5034011;28;20472;-69
2022/01/09 03:19:22;;;;;;;14.70;9.90;;;;;;;;;;5033516;28;20048;-68
2022/01/09 03:21:48;;;;;;;16.52;10.38;;;;;;;;;;5033373;28;20101;-68
2022/01/09 03:24:13;;;;;;;15.50;11.13;;;;;;;;;;5033489;28;20376;-67
2022/01/09 03:26:39;;;;;;;16.95;11.25;;;;;;;;;;5033789;28;20028;-68
2022/01/09 03:29:05;;;;;;;17.77;11.25;;;;;;;;;;5033701;28;20038;-67
2022/01/09 03:31:31;;;;;;;17.10;11.05;;;;;;;;;;5033660;28;20125;-69
2022/01/09 03:33:56;;;;;;;17.00;11.30;;;;;;;;;;5034031;28;20442;-68
2022/01/09 03:36:22;;;;;;;16.23;10.93;;;;;;;;;;5033519;28;20025;-69
2022/01/09 03:38:48;;;;;;;14.20;10.05;;;;;;;;;;5034033;28;20575;-69
2022/01/09 03:41:14;;;;;;;14.63;10.63;;;;;;;;;;5033816;28;20030;-68
2022/01/09 03:43:39;;;;;;;15.88;10.82;;;;;;;;;;5033454;28;20699;-69
2022/01/09 03:46:05;;;;;;;16.70;11.27;;;;;;;;;;5033612;28;20018;-68
2022/01/09 03:48:32;;;;;;;18.70;12.40;;;;;;;;;;5033774;28;20055;-68
2022/01/09 03:50:58;;;;;;;18.13;12.80;;;;;;;;;;5033660;28;20391;-67
2022/01/09 03:53:23;;;;;;;18.88;13.85;;;;;;;;;;5033168;28;20041;-68
2022/01/09 03:55:49;;;;;;;17.80;12.77;;;;;;;;;;5033196;28;20036;-67
2022/01/09 03:58:15;;;;;;;18.33;12.85;;;;;;;;;;5032873;28;20041;-68
2022/01/09 04:00:41;;;;;;;18.35;12.60;;;;;;;;;;5033212;28;20022;-68
2022/01/09 04:03:07;;;;;;;15.68;11.32;;;;;;;;;;5033176;28;20515;-67
2022/01/09 04:05:32;;;;;;;19.17;11.93;;;;;;;;;;5033298;28;20022;-69
2022/01/09 04:07:58;;;;;;;17.30;11.48;;;;;;;;;;5033254;28;20485;-67
2022/01/09 04:10:28;;;;;;;17.67;12.02;;;;;;;;;;5033017;28;20029;-68
2022/01/09 04:12:59;;;;;;;20.85;12.50;;;;;;;;;;5032851;28;20029;-68
2022/01/09 04:15:27;;;;;;;20.25;11.52;;;;;;;;;;5033040;28;20065;-68
2022/01/09 04:17:54;;;;;;;17.40;11.77;;;;;;;;;;5032838;28;20025;-68
2022/01/09 04:20:26;;;;;;;18.08;12.55;;;;;;;;;;5032487;28;20060;-69
2022/01/09 04:22:53;;;;;;;16.58;11.07;;;;;;;;;;5032428;28;20037;-67
2022/01/09 04:25:19;;;;;;;17.08;11.55;;;;;;;;;;5032998;28;20496;-68
2022/01/09 04:27:47;;;;;;;19.02;10.63;;;;;;;;;;5031796;28;20106;-68
2022/01/09 04:30:13;;;;;;;16.63;10.77;;;;;;;;;;5032347;28;20045;-68
2022/01/09 04:32:39;;;;;;;15.60;11.40;;;;;;;;;;5032453;28;20481;-69
2022/01/09 04:35:06;;;;;;;15.13;10.70;;;;;;;;;;5016953;28;20100;-68
2022/01/09 04:37:33;;;;;;;17.65;11.52;;;;;;;;;;5012730;28;20052;-66
2022/01/09 04:39:59;;;;;;;16.90;11.38;;;;;;;;;;5012538;28;20495;-67
2022/01/09 04:42:36;;;;;;;20.58;12.13;;;;;;;;;;5012392;28;20056;-70
2022/01/09 04:45:03;;;;;;;16.38;11.20;;;;;;;;;;5012828;28;20034;-68
2022/01/09 04:47:28;;;;;;;16.38;11.57;;;;;;;;;;5012522;28;20477;-69
2022/01/09 04:49:55;;;;;;;17.02;10.18;;;;;;;;;;5012444;28;20049;-67
2022/01/09 04:52:25;;;;;;;14.77;10.40;;;;;;;;;;5012431;28;20084;-70
2022/01/09 04:54:51;;;;;;;16.95;11.48;;;;;;;;;;5012224;28;20385;-68
2022/01/09 04:57:17;;;;;;;17.42;12.27;;;;;;;;;;5012575;28;20030;-68
2022/01/09 04:59:43;;;;;;;19.20;13.23;;;;;;;;;;5012255;28;20049;-68
2022/01/09 05:02:08;;;;;;;20.80;14.43;;;;;;;;;;5012467;28;20018;-68
2022/01/09 05:04:34;;;;;;;21.20;14.25;;;;;;;;;;5012305;28;20034;-68
2022/01/09 05:07:00;;;;;;;21.42;14.10;;;;;;;;;;5012311;28;20048;-68
2022/01/09 05:09:26;;;;;;;22.40;14.60;;;;;;;;;;5015078;28;20041;-67
2022/01/09 05:11:51;;;;;;;17.58;12.25;;;;;;;;;;5020593;28;20105;-68
2022/01/09 05:14:17;;;;;;;18.23;12.38;;;;;;;;;;5012559;28;20034;-72
2022/01/09 05:16:45;;;;;;;22.55;13.07;;;;;;;;;;5018852;28;20112;-73
2022/01/09 05:19:18;;;;;;;20.85;13.18;;;;;;;;;;5017350;28;20037;-75
2022/01/09 05:21:44;;;;;;;21.73;12.45;;;;;;;;;;5012262;28;20045;-73
2022/01/09 05:24:10;;;;;;;18.20;12.13;;;;;;;;;;5012574;28;20034;-73
2022/01/09 05:26:36;;;;;;;17.33;12.45;;;;;;;;;;5012476;28;20041;-74
2022/01/09 05:29:02;;;;;;;18.60;12.95;;;;;;;;;;5021074;28;20048;-74
2022/01/09 05:31:28;;;;;;;17.73;11.63;;;;;;;;;;5020272;28;20046;-73
2022/01/09 05:33:54;;;;;;;17.85;12.38;;;;;;;;;;5011793;28;20112;-73
2022/01/09 05:36:20;;;;;;;18.33;11.75;;;;;;;;;;5010601;28;20034;-73
2022/01/09 05:38:46;;;;;;;19.70;12.98;;;;;;;;;;5013684;28;20033;-73
2022/01/09 05:41:12;;;;;;;21.35;12.88;;;;;;;;;;5015833;28;20030;-73
2022/01/09 05:43:39;;;;;;;18.17;12.60;;;;;;;;;;5017033;28;20141;-73
2022/01/09 05:46:06;;;;;;;19.42;13.00;;;;;;;;;;5034759;28;20068;-72
2022/01/09 05:48:31;;;;;;;20.63;13.88;;;;;;;;;;5026116;28;20026;-72
2022/01/09 05:50:57;;;;;;;23.85;14.18;;;;;;;;;;5026516;28;20041;-73
2022/01/09 05:53:23;;;;;;;20.48;14.13;;;;;;;;;;5035655;28;20033;-73
2022/01/09 05:55:49;;;;;;;22.08;14.80;;;;;;;;;;5035601;28;20037;-74
2022/01/09 05:58:15;;;;;;;21.33;14.38;;;;;;;;;;5030179;28;20105;-72
2022/01/09 06:00:40;;;;;;;21.55;14.20;;;;;;;;;;5034946;28;20555;-75
2022/01/09 06:03:06;;;;;;;19.65;12.80;;;;;;;;;;5029075;28;20049;-74
2022/01/09 06:05:32;;;;;;;17.15;12.25;;;;;;;;;;5026418;28;20112;-74
2022/01/09 06:07:58;;;;;;;20.00;11.68;;;;;;;;;;5032821;28;20558;-73
2022/01/09 06:10:23;;;;;;;18.00;11.48;;;;;;;;;;5020713;28;20113;-72
2022/01/09 06:12:49;;;;;;;22.88;14.07;;;;;;;;;;5015118;28;20026;-74
2022/01/09 06:15:15;;;;;;;23.10;11.88;;;;;;;;;;5015531;28;20037;-73
2022/01/09 06:17:42;;;;;;;15.10;11.07;;;;;;;;;;5015308;28;20041;-73
2022/01/09 06:20:10;;;;;;;17.30;11.43;;;;;;;;;;5013478;28;20025;-75
2022/01/09 06:22:36;;;;;;;20.83;12.00;;;;;;;;;;5013434;28;20446;-75
2022/01/09 06:25:03;;;;;;;17.70;11.68;;;;;;;;;;5013398;28;20068;-76
2022/01/09 06:27:30;;;;;;;16.13;10.68;;;;;;;;;;5012185;28;20025;-73
2022/01/09 06:29:55;;;;;;;16.70;10.68;;;;;;;;;;5017133;28;20070;-74
2022/01/09 06:32:21;;;;;;;14.40;9.18;;;;;;;;;;5013537;28;20073;-74
2022/01/09 06:34:47;;;;;;;17.67;9.50;;;;;;;;;;5013862;28;20092;-74
2022/01/09 06:37:13;;;;;;;17.42;9.90;;;;;;;;;;5012529;28;20123;-75
2022/01/09 06:39:40;;;;;;;16.48;10.23;;;;;;;;;;5011447;28;20041;-75
2022/01/09 06:42:06;;;;;;;14.80;9.82;;;;;;;;;;5011960;28;20030;-74
2022/01/09 06:44:32;;;;;;;14.05;9.57;;;;;;;;;;5013524;28;20457;-74
2022/01/09 06:46:58;;;;;;;15.10;9.45;;;;;;;;;;5013575;28;20072;-75
2022/01/09 06:49:23;;;;;;;16.85;9.38;;;;;;;;;;5014272;28;20109;-74
2022/01/09 06:51:49;;;;;;;13.70;8.70;;;;;;;;;;5015061;28;20026;-74
2022/01/09 06:54:15;;;;;;;16.05;9.15;;;;;;;;;;5015620;28;20057;-73
2022/01/09 06:56:41;;;;;;;18.58;9.68;;;;;;;;;;5013911;28;20519;-75
2022/01/09 06:59:07;;;;;;;17.15;10.27;;;;;;;;;;5014953;28;20048;-74
2022/01/09 07:01:33;;;;;;;23.88;10.93;;;;;;;;;;5015485;28;20049;-74
2022/01/09 07:03:59;;;;;;;18.08;11.07;;;;;;;;;;5015100;28;20040;-73
2022/01/09 07:06:25;;;;;;;17.05;11.75;;;;;;;;;;5015109;28;20026;-74
2022/01/09 07:08:51;;;;;;;30.35;12.82;;;;;;;;;;5026763;28;20476;-73
2022/01/09 07:11:16;;;;;;;20.15;12.77;;;;;;;;;;5014895;28;20040;-74
2022/01/09 07:13:42;;;;;;;16.48;12.70;;;;;;;;;;5015095;28;20034;-71
2022/01/09 07:16:08;;;;;;;20.27;14.02;;;;;;;;;;5015302;28;20109;-72
2022/01/09 07:18:34;;;;;;;19.15;13.93;;;;;;;;;;5015781;28;20029;-72
2022/01/09 07:21:01;;;;;;;20.25;13.40;;;;;;;;;;5053690;28;20387;-71
2022/01/09 07:23:27;;;;;;;20.88;12.25;;;;;;;;;;5054064;28;20029;-72
2022/01/09 07:25:52;;;;;;;20.88;12.73;;;;;;;;;;5054276;28;20475;-71
2022/01/09 07:28:18;;;;;;;17.27;10.95;;;;;;;;;;5054333;28;20072;-73
2022/01/09 07:30:44;;;;;;;19.85;11.25;;;;;;;;;;5054433;28;20037;-74
2022/01/09 07:33:10;;;;;;;24.95;11.13;;;;;;;;;;5054368;28;20029;-73
2022/01/09 07:35:36;;;;;;;24.75;12.27;;;;;;;;;;5054136;28;20082;-71
2022/01/09 07:38:02;;;;;;;22.23;12.43;;;;;;;;;;5053971;28;20033;-73
2022/01/09 07:40:28;;;;;;;27.77;13.05;;;;;;;;;;5054208;28;20036;-71
2022/01/09 07:42:54;;;;;;;22.42;10.50;;;;;;;;;;5053823;28;20037;-70
2022/01/09 07:45:26;;;;;;;19.25;10.23;;;;;;;;;;5054155;28;20104;-70
2022/01/09 07:47:53;;;;;;;17.38;10.52;;;;;;;;;;5054169;28;20353;-72
2022/01/09 07:50:20;;;;;;;17.23;9.40;;;;;;;;;;5053487;28;20094;-73
2022/01/09 07:52:46;;;;;;;22.48;11.23;;;;;;;;;;5020440;28;20116;-72
2022/01/09 07:55:12;;;;;;;23.75;11.70;;;;;;;;;;5020334;28;20076;-76
2022/01/09 07:57:38;;;;;;;30.95;11.63;;;;;;;;;;5034918;28;20036;-75
2022/01/09 08:00:05;;;;;;;30.33;12.80;;;;;;;;;;5026596;28;20025;-74
2022/01/09 08:02:51;;;;;;;27.48;12.15;;;;;;;;;;5032587;28;20128;-75
2022/01/09 08:05:17;;;;;;;32.22;13.52;;;;;;;;;;5032659;28;20052;-76
2022/01/09 08:07:43;;;;;;;25.92;12.55;;;;;;;;;;5020069;28;20076;-76
2022/01/09 08:10:10;;;;;;;19.70;10.90;;;;;;;;;;5026046;28;20057;-78
2022/01/09 08:12:36;;;;;;;44.72;13.38;;;;;;;;;;5012135;28;20159;-76
2022/01/09 08:15:03;;;;;;;37.45;13.18;;;;;;;;;;5024389;28;20492;-75
2022/01/09 08:17:29;;;;;;;40.88;14.88;;;;;;;;;;5031940;28;20021;-75
2022/01/09 08:19:55;;;;;;;44.35;16.60;;;;;;;;;;5031684;28;20041;-76
2022/01/09 08:22:21;;;;;;;48.63;14.25;;;;;;;;;;5025086;28;20100;-74
2022/01/09 08:24:48;;;;;;;19.80;11.20;;;;;;;;;;5018799;28;20811;-76
2022/01/09 08:27:14;;;;;;;17.30;10.93;;;;;;;;;;5066274;28;20025;-74
2022/01/09 08:29:39;;;;;;;20.95;10.10;;;;;;;;;;5034353;28;20103;-74
2022/01/09 08:32:07;;;;;;;29.75;10.40;;;;;;;;;;5031809;28;20041;-73
2022/01/09 08:34:33;;;;;;;30.90;10.10;;;;;;;;;;5030957;28;20078;-75
2022/01/09 08:36:59;;;;;;;26.55;10.77;;;;;;;;;;5036612;28;20036;-75
2022/01/09 08:39:25;;;;;;;15.27;8.80;;;;;;;;;;5033707;28;20048;-75
2022/01/09 08:41:51;;;;;;;17.55;8.98;;;;;;;;;;5013156;28;20473;-75
2022/01/09 08:44:17;;;;;;;17.60;8.68;;;;;;;;;;5016203;28;20507;-74
2022/01/09 08:46:42;;;;;;;16.23;8.02;;;;;;;;;;5023933;28;20033;-74
2022/01/09 08:49:08;;;;;;;14.52;7.80;;;;;;;;;;5012291;28;20065;-74
2022/01/09 08:51:34;;;;;;;14.48;7.95;;;;;;;;;;5012390;28;20040;-73
2022/01/09 08:54:00;;;;;;;14.10;9.00;;;;;;;;;;5012739;28;20045;-72
2022/01/09 08:56:27;;;;;;;20.30;9.52;;;;;;;;;;5011051;28;20067;-72
2022/01/09 08:58:54;;;;;;;23.88;9.60;;;;;;;;;;5012742;28;20026;-74
2022/01/09 09:01:20;;;;;;;16.60;9.18;;;;;;;;;;5012277;28;20054;-74
2022/01/09 09:03:46;;;;;;;14.05;9.45;;;;;;;;;;5012901;28;20069;-75
2022/01/09 09:06:14;;;;;;;14.75;8.98;;;;;;;;;;5023162;28;20029;-72
2022/01/09 09:08:41;;;;;;;12.68;8.48;;;;;;;;;;5028735;28;20408;-76
2022/01/09 09:11:09;;;;;;;17.35;10.45;;;;;;;;;;5016445;28;20028;-76
2022/01/09 09:13:35;;;;;;;15.88;9.48;;;;;;;;;;5017161;28;20062;-76
2022/01/09 09:16:01;;;;;;;13.43;8.63;;;;;;;;;;5031955;28;20030;-74
2022/01/09 09:18:27;;;;;;;23.70;7.95;;;;;;;;;;5029578;28;20100;-74
2022/01/09 09:20:53;;;;;;;15.38;8.75;;;;;;;;;;5036803;28;20132;-74
2022/01/09 09:23:23;;;;;;;9.73;6.80;;;;;;;;;;5051385;28;20037;-75
2022/01/09 09:25:49;;;;;;;16.67;7.40;;;;;;;;;;5020379;28;20029;-76
2022/01/09 09:28:15;;;;;;;11.65;8.52;;;;;;;;;;5023836;28;20026;-74
2022/01/09 09:30:41;;;;;;;16.42;8.43;;;;;;;;;;5025565;28;20842;-73
2022/01/09 09:33:07;;;;;;;12.35;7.85;;;;;;;;;;5020222;28;20039;-73
2022/01/09 09:35:34;;;;;;;33.60;20.83;;;;;;;;;;5014207;28;20124;-74
2022/01/09 09:38:00;;;;;;;22.08;9.73;;;;;;;;;;5021069;28;20038;-73
2022/01/09 09:40:26;;;;;;;13.57;8.75;;;;;;;;;;5019622;28;20057;-73
2022/01/09 09:42:54;;;;;;;33.58;11.00;;;;;;;;;;5011608;28;20493;-73
2022/01/09 09:45:21;;;;;;;17.05;9.32;;;;;;;;;;5015101;28;20076;-74
2022/01/09 09:47:46;;;;;;;20.00;10.13;;;;;;;;;;5029674;28;20435;-74
2022/01/09 09:50:15;;;;;;;48.90;14.00;;;;;;;;;;5029710;28;20025;-71
2022/01/09 09:52:42;;;;;;;23.88;9.73;;;;;;;;;;5040494;28;20384;-73
2022/01/09 09:55:08;;;;;;;27.38;10.73;;;;;;;;;;5039066;28;20036;-76
2022/01/09 09:57:34;;;;;;;19.50;10.00;;;;;;;;;;5014122;28;20420;-73
2022/01/09 10:00:16;;;;;;;12.70;8.50;;;;;;;;;;5015545;28;20021;-74
2022/01/09 10:02:54;;;;;;;14.45;8.52;;;;;;;;;;5030370;28;20405;-76
2022/01/09 10:05:23;;;;;;;17.60;7.55;;;;;;;;;;5029858;28;20468;-74
2022/01/09 10:07:51;;;;;;;11.68;8.13;;;;;;;;;;5010900;28;20030;-76
2022/01/09 10:10:20;;;;;;;21.35;8.32;;;;;;;;;;5009565;28;20485;-79
2022/01/09 10:12:48;;;;;;;15.13;8.48;;;;;;;;;;5019211;28;20034;-77
2022/01/09 10:15:19;;;;;;;19.17;8.13;;;;;;;;;;5029194;28;20029;-75
2022/01/09 10:17:50;;;;;;;12.13;7.88;;;;;;;;;;5030861;28;20073;-75
2022/01/09 10:20:18;;;;;;;19.20;9.52;;;;;;;;;;5031103;28;20033;-75
2022/01/09 10:22:53;;;;;;;24.80;8.90;;;;;;;;;;5030948;28;20373;-75
2022/01/09 10:25:30;;;;;;;20.45;9.32;;;;;;;;;;5029640;28;20041;-77
2022/01/09 10:28:06;;;;;;;14.30;8.27;;;;;;;;;;5024868;28;20184;-79
2022/01/09 10:30:39;;;;;;;15.30;8.23;;;;;;;;;;5014816;28;20076;-78
2022/01/09 10:33:10;;;;;;;30.30;9.75;;;;;;;;;;5012844;28;20037;-79
2022/01/09 10:35:39;;;;;;;35.63;18.35;;;;;;;;;;5015537;28;20336;-75
2022/01/09 10:38:19;;;;;;;16.10;7.53;;;;;;;;;;5019927;28;20116;-74
2022/01/09 10:40:49;;;;;;;16.95;8.23;;;;;;;;;;5032579;28;20041;-75
2022/01/09 10:43:20;;;;;;;20.48;8.77;;;;;;;;;;5021729;28;20041;-73
2022/01/09 10:45:56;;;;;;;19.50;8.55;;;;;;;;;;5012845;28;20036;-75
2022/01/09 10:48:25;;;;;;;14.48;8.55;;;;;;;;;;5021680;28;20034;-75
2022/01/09 10:50:52;;;;;;;11.90;7.78;;;;;;;;;;5033522;28;20018;-74
2022/01/09 10:53:20;;;;;;;10.50;8.52;;;;;;;;;;5021002;28;20084;-73
2022/01/09 10:56:20;;;;;;;13.35;7.75;;;;;;;;;;5014458;28;20038;-76
2022/01/09 10:58:51;;;;;;;12.20;7.55;;;;;;;;;;5013335;28;20046;-76
2022/01/09 11:01:23;;;;;;;12.90;7.18;;;;;;;;;;5014186;28;20041;-74
2022/01/09 11:04:22;;;;;;;24.42;8.70;;;;;;;;;;5014920;28;20065;-74
2022/01/09 11:06:48;;;;;;;24.65;8.93;;;;;;;;;;5012791;28;20112;-75
2022/01/09 11:09:13;;;;;;;13.85;7.15;;;;;;;;;;5016254;28;20101;-76
2022/01/09 11:11:43;;;;;;;18.80;8.90;;;;;;;;;;5024041;28;20022;-76
2022/01/09 11:14:14;;;;;;;12.98;7.25;;;;;;;;;;5021900;28;20029;-74
2022/01/09 11:16:47;;;;;;;16.40;7.03;;;;;;;;;;5021360;28;20381;-76
2022/01/09 11:19:14;;;;;;;;;;;;;;;;;;5019757;28;20030;-74
2022/01/09 11:21:46;;;;;;;13.95;7.35;;;;;;;;;;5020179;28;19924;-73
2022/01/09 11:24:35;;;;;;;11.13;7.05;;;;;;;;;;5022167;28;20074;-74
2022/01/09 11:27:22;;;;;;;10.75;6.82;;;;;;;;;;5018960;28;20471;-75
2022/01/09 11:30:26;;;;;;;12.85;8.65;;;;;;;;;;5019789;28;20057;-75
2022/01/09 11:33:05;;;;;;;;;;;;;;;;;;5026213;28;20433;-76
2022/01/09 11:35:38;;;;;;;37.20;9.98;;;;;;;;;;5020512;28;19917;-76
2022/01/09 11:38:31;;;;;;;16.70;9.47;;;;;;;;;;5025622;28;20048;-75
2022/01/09 11:41:21;;;;;;;16.00;9.20;;;;;;;;;;5020122;28;20607;-76
2022/01/09 11:44:06;;;;;;;22.77;8.73;;;;;;;;;;5022167;28;20049;-76
2022/01/09 11:46:57;;;;;;;17.25;9.77;;;;;;;;;;5021292;28;20079;-77
2022/01/09 11:49:25;;;;;;;14.48;8.88;;;;;;;;;;5039507;28;20432;-76
2022/01/09 11:51:53;;;;;;;17.73;9.98;;;;;;;;;;5020066;28;20026;-75
2022/01/09 11:54:20;;;;;;;18.05;10.13;;;;;;;;;;5021731;28;20046;-74
2022/01/09 11:57:03;;;;;;;20.90;10.95;;;;;;;;;;5022923;28;20098;-74
2022/01/09 11:59:30;;;;;;;22.67;12.48;;;;;;;;;;5024051;28;20056;-75
2022/01/09 12:02:16;;;;;;;19.05;10.82;;;;;;;;;;5020659;28;20059;-74
2022/01/09 12:04:42;;;;;;;22.50;9.15;;;;;;;;;;5017933;28;20042;-76
2022/01/09 12:07:12;;;;;;;10.57;6.82;;;;;;;;;;5018023;28;20152;-75
2022/01/09 12:09:41;;;;;;;9.15;5.15;;;;;;;;;;5031548;28;20052;-75
2022/01/09 12:12:12;;;;;;;13.68;6.40;;;;;;;;;;5032426;28;20032;-74
2022/01/09 12:14:58;;;;;;;10.98;6.65;;;;;;;;;;5031929;28;20060;-74
2022/01/09 12:17:26;;;;;;;13.02;7.53;;;;;;;;;;5019152;28;20053;-76
2022/01/09 12:20:04;;;;;;;11.10;6.15;;;;;;;;;;5012740;28;20029;-75
2022/01/09 12:22:39;;;;;;;11.82;6.00;;;;;;;;;;5011563;28;20400;-75
2022/01/09 12:25:25;;;;;;;15.63;6.55;;;;;;;;;;5012146;28;20041;-77
2022/01/09 12:28:08;;;;;;;9.57;5.63;;;;;;;;;;5022599;28;20041;-75
2022/01/09 12:30:40;;;;;;;10.43;6.30;;;;;;;;;;5015345;28;20072;-74
2022/01/09 12:33:15;;;;;;;14.23;9.25;;;;;;;;;;5032350;28;20277;-76
2022/01/09 12:35:43;;;;;;;9.73;6.50;;;;;;;;;;5023671;28;20515;-75
2022/01/09 12:38:17;;;;;;;11.38;6.32;;;;;;;;;;5025827;28;20109;-77
2022/01/09 12:40:44;;;;;;;10.75;7.22;;;;;;;;;;5015178;28;20538;-76
2022/01/09 12:43:11;;;;;;;9.73;7.00;;;;;;;;;;5020487;28;20031;-76
2022/01/09 12:45:43;;;;;;;8.68;6.03;;;;;;;;;;5031464;28;20549;-76
2022/01/09 12:48:27;;;;;;;12.35;7.68;;;;;;;;;;5026515;28;20022;-74
2022/01/09 12:50:54;;;;;;;10.50;7.45;;;;;;;;;;5022463;28;20080;-75
2022/01/09 12:53:29;;;;;;;15.73;9.50;;;;;;;;;;5019268;28;20091;-75
2022/01/09 12:55:58;;;;;;;17.63;10.02;;;;;;;;;;5033849;28;20048;-74
2022/01/09 12:58:30;;;;;;;16.08;9.60;;;;;;;;;;5050252;28;20036;-78
2022/01/09 13:00:58;;;;;;;14.23;8.07;;;;;;;;;;5041769;28;20489;-74
2022/01/09 13:03:30;;;;;;;13.25;8.32;;;;;;;;;;5032498;28;20025;-74
2022/01/09 13:06:07;;;;;;;17.95;12.20;;;;;;;;;;5031597;28;20083;-78
2022/01/09 13:08:38;;;;;;;18.38;10.45;;;;;;;;;;5025112;28;20036;-76
2022/01/09 13:11:07;;;;;;;16.38;9.52;;;;;;;;;;5019529;28;20025;-77
2022/01/09 13:13:34;;;;;;;18.13;10.55;;;;;;;;;;5020392;28;20053;-76
2022/01/09 13:16:22;;;;;;;14.00;9.07;;;;;;;;;;5025198;28;20030;-76
2022/01/09 13:18:49;;;;;;;15.15;8.63;;;;;;;;;;5017586;28;20037;-77
2022/01/09 13:21:22;;;;;;;16.15;9.23;;;;;;;;;;5021331;28;20031;-73
2022/01/09 13:23:59;;;;;;;18.67;12.40;;;;;;;;;;5018475;28;20038;-77
2022/01/09 13:26:27;;;;;;;39.17;26.23;;;;;;;;;;5021710;28;20057;-75
2022/01/09 13:28:54;;;;;;;22.30;14.65;;;;;;;;;;5020939;28;20472;-75
2022/01/09 13:31:22;;;;;;;20.48;11.57;;;;;;;;;;5027934;28;20392;-78
2022/01/09 13:34:04;;;;;;;20.02;11.18;;;;;;;;;;5021509;28;20038;-75
2022/01/09 13:36:32;;;;;;;12.80;8.98;;;;;;;;;;5029926;28;20030;-74
2022/01/09 13:38:59;;;;;;;14.85;8.65;;;;;;;;;;5020084;28;20026;-76
2022/01/09 13:41:29;;;;;;;21.77;10.80;;;;;;;;;;5012662;28;20030;-78
2022/01/09 13:43:55;;;;;;;18.33;11.38;;;;;;;;;;5025575;28;20569;-75
2022/01/09 13:46:20;;;;;;;15.98;9.05;;;;;;;;;;5031522;28;20097;-74
2022/01/09 13:48:51;;;;;;;15.30;10.00;;;;;;;;;;5030677;28;20103;-77
2022/01/09 13:51:36;;;;;;;18.17;11.43;;;;;;;;;;5017540;28;20040;-77
2022/01/09 13:54:08;;;;;;;13.32;8.20;;;;;;;;;;5020168;28;20392;-78
2022/01/09 13:56:34;;;;;;;11.20;7.15;;;;;;;;;;5019885;28;20488;-75
2022/01/09 13:58:59;;;;;;;13.80;7.82;;;;;;;;;;5028907;28;20130;-76
2022/01/09 14:01:45;;;;;;;21.70;13.23;;;;;;;;;;5033394;28;20049;-78
2022/01/09 14:04:17;;;;;;;17.85;7.65;;;;;;;;;;5033846;28;20044;-79
2022/01/09 14:06:56;;;;;;;10.32;6.88;;;;;;;;;;5027567;28;20037;-78
2022/01/09 14:09:30;;;;;;;10.70;7.05;;;;;;;;;;5034922;28;20071;-78
2022/01/09 14:12:02;;;;;;;10.90;7.38;;;;;;;;;;5033945;28;20435;-76
2022/01/09 14:14:30;;;;;;;17.15;10.05;;;;;;;;;;5035217;28;20087;-75
2022/01/09 14:16:56;;;;;;;16.23;9.75;;;;;;;;;;5027906;28;20049;-79
2022/01/09 14:19:22;;;;;;;11.63;8.18;;;;;;;;;;5016086;28;20065;-79
2022/01/09 14:21:59;;;;;;;22.02;12.82;;;;;;;;;;5015291;28;20030;-76
2022/01/09 14:24:25;;;;;;;34.38;19.33;;;;;;;;;;5018882;28;20064;-78
2022/01/09 14:26:57;;;;;;;13.25;8.20;;;;;;;;;;5028157;28;20125;-79
2022/01/09 14:29:39;;;;;;;10.30;7.70;;;;;;;;;;5025302;28;20442;-82
2022/01/09 14:32:19;;;;;;;12.63;7.50;;;;;;;;;;5029511;28;20034;-78
2022/01/09 14:34:45;;;;;;;18.90;9.65;;;;;;;;;;5024729;28;20372;-76